Time;durP1;ratioP1;P1;durP2;ratioP2;P2;SDS_P1;SDS_P2;PMS_P1;PMS_P2;Temp;Humidity;BMP_temperature;BMP_pressure;BME280_temperature;BME280_humidity;BME280_pressure;Samples;Min_cycle;Max_cycle;Signal;HPM_P1;HPM_P2
2021/12/26 00:00:00;;;;;;;;;;;;;;;;;;2049783;29;1328;-79
2021/12/26 00:01:04;;;;;;;;;;;;;;;;;;2049525;29;1862;-79
2021/12/26 00:02:06;;;;;;;;;;;;;;;;;;2050103;29;853;-79
2021/12/26 00:03:07;;;;;;;;;;;;;;;;;;2041718;29;1266;-80
2021/12/26 00:04:13;;;;;;;;;;;;;;;;;;2043419;29;1278;-79
2021/12/26 00:05:14;;;;;;;;;;;;;;;;;;2052975;28;1199;-81
2021/12/26 00:06:18;;;;;;;;;;;;;;;;;;2057869;28;1522;-80
2021/12/26 00:07:18;;;;;;;;;;;;;;;;;;2055480;28;1384;-80
2021/12/26 00:08:20;;;;;;;;;;;;;;;;;;2057884;28;1300;-80
2021/12/26 00:09:21;;;;;;;;;;;;;;;;;;2057525;28;1307;-80
2021/12/26 00:10:25;;;;;;;;;;;;;;;;;;2057452;28;1227;-79
2021/12/26 00:11:26;;;;;;;;;;;;;;;;;;2057040;28;2065;-79
2021/12/26 00:12:28;;;;;;;;;;;;;;;;;;2045784;28;1353;-80
2021/12/26 00:13:30;;;;;;;;;;;;;;;;;;2041802;29;785;-80
2021/12/26 00:14:32;;;;;;;;;;;;;;;;;;2041663;29;1539;-79
2021/12/26 00:15:32;;;;;;;;;;;;;;;;;;2041648;29;1201;-79
2021/12/26 00:16:34;;;;;;;;;;;;;;;;;;2054865;28;931;-80
2021/12/26 00:17:35;;;;;;;;;;;;;;;;;;2058028;28;861;-80
2021/12/26 00:18:37;;;;;;;;;;;;;;;;;;2057860;28;1376;-79
2021/12/26 00:19:39;;;;;;;;;;;;;;;;;;2049876;29;1920;-80
2021/12/26 00:20:41;;;;;;;;;;;;;;;;;;2041968;29;1649;-80
2021/12/26 00:21:43;;;;;;;;;;;;;;;;;;2049767;29;1331;-80
2021/12/26 00:22:43;;;;;;;;;;;;;;;;;;2050922;28;1690;-80
2021/12/26 00:23:46;;;;;;;;;;;;;;;;;;2048400;29;1379;-79
2021/12/26 00:24:46;;;;;;;;;;;;;;;;;;2027093;29;1386;-81
2021/12/26 00:25:50;;;;;;;;;;;;;;;;;;2034056;29;834;-80
2021/12/26 00:26:50;;;;;;;;;;;;;;;;;;2056540;28;1971;-80
2021/12/26 00:27:52;;;;;;;;;;;;;;;;;;2049601;29;1463;-80
2021/12/26 00:28:55;;;;;;;;;;;;;;;;;;2055253;28;1356;-80
2021/12/26 00:29:56;;;;;;;;;;;;;;;;;;2049801;28;1379;-80
2021/12/26 00:30:58;;;;;;;;;;;;;;;;;;2042092;28;1891;-83
2021/12/26 00:31:59;;;;;;;;;;;;;;;;;;2034202;29;1570;-80
2021/12/26 00:33:01;;;;;;;;;;;;;;;;;;2041741;29;1560;-80
2021/12/26 00:34:02;;;;;;;;;;;;;;;;;;2042132;29;1250;-80
2021/12/26 00:35:04;;;;;;;;;;;;;;;;;;2033942;29;1284;-79
2021/12/26 00:36:05;;;;;;;;;;;;;;;;;;2034422;29;1246;-80
2021/12/26 00:37:07;;;;;;;;;;;;;;;;;;2049622;28;991;-80
2021/12/26 00:38:10;;;;;;;;;;;;;;;;;;2058556;28;898;-80
2021/12/26 00:39:12;;;;;;;;;;;;;;;;;;2049537;28;1421;-80
2021/12/26 00:40:14;;;;;;;;;;;;;;;;;;2042103;29;1221;-81
2021/12/26 00:41:18;;;;;;;;;;;;;;;;;;2039330;29;2038;-80
2021/12/26 00:42:19;;;;;;;;;;;;;;;;;;2042307;29;868;-80
2021/12/26 00:43:21;;;;;;;;;;;;;;;;;;2049670;29;1572;-81
2021/12/26 00:44:22;;;;;;;;;;;;;;;;;;2049598;29;1207;-81
2021/12/26 00:45:24;;;;;;;;;;;;;;;;;;2049801;29;1357;-81
2021/12/26 00:46:25;;;;;;;;;;;;;;;;;;2045584;29;1983;-81
2021/12/26 00:47:29;;;;;;;;;;;;;;;;;;2049659;29;910;-80
2021/12/26 00:48:30;;;;;;;;;;;;;;;;;;2049898;29;1407;-80
2021/12/26 00:49:32;;;;;;;;;;;;;;;;;;2041816;29;1356;-80
2021/12/26 00:50:33;;;;;;;;;;;;;;;;;;2041864;29;1392;-80
2021/12/26 00:51:35;;;;;;;;;;;;;;;;;;2054241;28;1915;-80
2021/12/26 00:52:36;;;;;;;;;;;;;;;;;;2059032;28;1918;-80
2021/12/26 00:53:38;;;;;;;;;;;;;;;;;;2059263;28;1404;-80
2021/12/26 00:54:39;;;;;;;;;;;;;;;;;;2059275;28;844;-80
2021/12/26 00:55:40;;;;;;;;;;;;;;;;;;2067469;28;1290;-80
2021/12/26 00:56:43;;;;;;;;;;;;;;;;;;2059098;28;1592;-80
2021/12/26 00:57:45;;;;;;;;;;;;;;;;;;2050886;28;1246;-81
2021/12/26 00:58:47;;;;;;;;;;;;;;;;;;2058994;28;1202;-80
2021/12/26 00:59:47;;;;;;;;;;;;;;;;;;2059014;28;1335;-80
2021/12/26 01:00:51;;;;;;;;;;;;;;;;;;2059272;28;1308;-80
2021/12/26 01:01:53;;;;;;;;;;;;;;;;;;2044017;29;1294;-80
2021/12/26 01:02:55;;;;;;;;;;;;;;;;;;2043410;28;1324;-81
2021/12/26 01:03:57;;;;;;;;;;;;;;;;;;2059190;28;860;-81
2021/12/26 01:04:58;;;;;;;;;;;;;;;;;;2058765;28;1375;-81
2021/12/26 01:06:00;;;;;;;;;;;;;;;;;;2050985;28;1365;-81
2021/12/26 01:07:07;;;;;;;;;;;;;;;;;;2043318;29;1252;-81
2021/12/26 01:08:09;;;;;;;;;;;;;;;;;;2051051;29;1302;-80
2021/12/26 01:09:16;;;;;;;;;;;;;;;;;;2051253;28;1213;-80
2021/12/26 01:10:20;;;;;;;;;;;;;;;;;;2051258;29;1514;-82
2021/12/26 01:11:33;;;;;;;;;;;;;;;;;;2050374;28;2018;-80
2021/12/26 01:12:37;;;;;;;;;;;;;;;;;;2051259;29;1203;-80
2021/12/26 01:13:39;;;;;;;;;;;;;;;;;;2051250;28;1006;-80
2021/12/26 01:15:11;;;;;;;;;;;;;;;;;;2046585;28;1241;-80
2021/12/26 01:16:23;;;;;;;;;;;;;;;;;;2047784;29;2081;-81
2021/12/26 01:17:25;;;;;;;;;;;;;;;;;;2043318;29;826;-81
2021/12/26 01:18:39;;;;;;;;;;;;;;;;;;2051094;29;1502;-80
2021/12/26 01:19:44;;;;;;;;;;;;;;;;;;2050914;29;1165;-80
2021/12/26 01:20:51;;;;;;;;;;;;;;;;;;2043092;29;1538;-80
2021/12/26 01:21:53;;;;;;;;;;;;;;;;;;2043899;29;1298;-80
2021/12/26 01:22:55;;;;;;;;;;;;;;;;;;2053599;28;1300;-80
2021/12/26 01:23:58;;;;;;;;;;;;;;;;;;2059122;28;1274;-80
2021/12/26 01:24:59;;;;;;;;;;;;;;;;;;2050493;29;1379;-80
2021/12/26 01:26:01;;;;;;;;;;;;;;;;;;2035799;29;2059;-81
2021/12/26 01:27:05;;;;;;;;;;;;;;;;;;2050846;29;1291;-80
2021/12/26 01:28:10;;;;;;;;;;;;;;;;;;2043605;29;1171;-81
2021/12/26 01:29:12;;;;;;;;;;;;;;;;;;2050933;28;1360;-80
2021/12/26 01:30:17;;;;;;;;;;;;;;;;;;2067083;28;1466;-80
2021/12/26 01:31:23;;;;;;;;;;;;;;;;;;2054300;28;2018;-81
2021/12/26 01:32:29;;;;;;;;;;;;;;;;;;2051586;28;1684;-80
2021/12/26 01:34:04;;;;;;;;;;;;;;;;;;2055189;28;1348;-81
2021/12/26 01:35:18;;;;;;;;;;;;;;;;;;2050923;29;1495;-81
2021/12/26 01:36:34;;;;;;;;;;;;;;;;;;2047875;29;1385;-80
2021/12/26 01:38:03;;;;;;;;;;;;;;;;;;2052627;28;1268;-80
2021/12/26 01:39:24;;;;;;;;;;;;;;;;;;2056580;28;675;-80
2021/12/26 01:40:54;;;;;;;;;;;;;;;;;;2049257;28;1052;-80
2021/12/26 01:42:14;;;;;;;;;;;;;;;;;;2019274;29;1148;-80
2021/12/26 01:43:35;;;;;;;;;;;;;;;;;;2050676;29;1458;-81
2021/12/26 01:44:45;;;;;;;;;;;;;;;;;;2043146;29;1483;-80
2021/12/26 01:45:50;;;;;;;;;;;;;;;;;;2051259;28;1407;-80
2021/12/26 01:46:51;;;;;;;;;;;;;;;;;;2050547;29;2097;-80
2021/12/26 01:48:04;;;;;;;;;;;;;;;;;;2052128;28;1341;-80
2021/12/26 01:49:08;;;;;;;;;;;;;;;;;;2058224;28;1328;-80
2021/12/26 01:50:10;;;;;;;;;;;;;;;;;;2050993;29;1523;-80
2021/12/26 01:51:11;;;;;;;;;;;;;;;;;;2050343;29;1392;-80
2021/12/26 01:52:15;;;;;;;;;;;;;;;;;;2058688;28;1903;-80
2021/12/26 01:53:19;;;;;;;;;;;;;;;;;;2050617;29;1226;-80
2021/12/26 01:54:29;;;;;;;;;;;;;;;;;;2050783;28;1317;-80
2021/12/26 01:55:39;;;;;;;;;;;;;;;;;;2057467;28;1385;-80
2021/12/26 01:56:41;;;;;;;;;;;;;;;;;;2050772;29;1257;-80
2021/12/26 01:57:43;;;;;;;;;;;;;;;;;;2050522;29;1443;-80
2021/12/26 01:58:46;;;;;;;;;;;;;;;;;;2042857;29;1234;-80
2021/12/26 02:00:07;;;;;;;;;;;;;;;;;;2044884;29;1337;-80
2021/12/26 02:01:31;;;;;;;;;;;;;;;;;;2050892;29;999;-81
2021/12/26 02:02:31;;;;;;;;;;;;;;;;;;2058654;28;1494;-80
2021/12/26 02:03:33;;;;;;;;;;;;;;;;;;2058021;28;1334;-80
2021/12/26 02:04:35;;;;;;;;;;;;;;;;;;2058334;28;1177;-80
2021/12/26 02:05:38;;;;;;;;;;;;;;;;;;2050147;29;1583;-80
2021/12/26 02:06:42;;;;;;;;;;;;;;;;;;2043086;29;2087;-81
2021/12/26 02:07:44;;;;;;;;;;;;;;;;;;2058549;28;1680;-80
2021/12/26 02:08:45;;;;;;;;;;;;;;;;;;2058639;28;1225;-80
2021/12/26 02:09:47;;;;;;;;;;;;;;;;;;2050420;29;1518;-80
2021/12/26 02:10:53;;;;;;;;;;;;;;;;;;2050661;29;1306;-80
2021/12/26 02:11:54;;;;;;;;;;;;;;;;;;2050412;29;1906;-80
2021/12/26 02:12:56;;;;;;;;;;;;;;;;;;2058494;28;1260;-80
2021/12/26 02:13:59;;;;;;;;;;;;;;;;;;2058584;28;808;-82
2021/12/26 02:15:05;;;;;;;;;;;;;;;;;;2042631;29;1316;-80
2021/12/26 02:16:16;;;;;;;;;;;;;;;;;;2044039;29;1615;-80
2021/12/26 02:17:17;;;;;;;;;;;;;;;;;;2058393;28;1284;-80
2021/12/26 02:18:21;;;;;;;;;;;;;;;;;;2050470;29;1559;-80
2021/12/26 02:19:21;;;;;;;;;;;;;;;;;;2050462;28;1510;-80
2021/12/26 02:20:32;;;;;;;;;;;;;;;;;;2058627;28;788;-80
2021/12/26 02:21:54;;;;;;;;;;;;;;;;;;2042545;29;1314;-80
2021/12/26 02:23:00;;;;;;;;;;;;;;;;;;2050704;28;1724;-80
2021/12/26 02:24:09;;;;;;;;;;;;;;;;;;2057836;28;1260;-80
2021/12/26 02:25:27;;;;;;;;;;;;;;;;;;2047763;28;1325;-81
2021/12/26 02:27:47;;;;;;;;;;;;;;;;;;2058250;28;1357;-81
2021/12/26 02:28:48;;;;;;;;;;;;;;;;;;2058620;28;1456;-81
2021/12/26 02:29:50;;;;;;;;;;;;;;;;;;2050360;29;1340;-80
2021/12/26 02:30:51;;;;;;;;;;;;;;;;;;2041995;29;1189;-81
2021/12/26 02:31:53;;;;;;;;;;;;;;;;;;2050633;28;1977;-81
2021/12/26 02:32:58;;;;;;;;;;;;;;;;;;2059286;28;841;-81
2021/12/26 02:33:59;;;;;;;;;;;;;;;;;;2050525;29;1257;-81
2021/12/26 02:35:00;;;;;;;;;;;;;;;;;;2042403;29;1380;-81
2021/12/26 02:36:04;;;;;;;;;;;;;;;;;;2050414;28;1280;-81
2021/12/26 02:37:05;;;;;;;;;;;;;;;;;;2058204;28;1314;-81
2021/12/26 02:38:07;;;;;;;;;;;;;;;;;;2058124;28;1145;-81
2021/12/26 02:39:07;;;;;;;;;;;;;;;;;;2058280;28;1174;-81
2021/12/26 02:40:10;;;;;;;;;;;;;;;;;;2052596;28;1159;-81
2021/12/26 02:41:10;;;;;;;;;;;;;;;;;;2061621;28;1256;-81
2021/12/26 02:42:12;;;;;;;;;;;;;;;;;;2066246;28;1419;-81
2021/12/26 02:43:15;;;;;;;;;;;;;;;;;;2058298;28;1666;-81
2021/12/26 02:44:17;;;;;;;;;;;;;;;;;;2058728;28;1688;-81
2021/12/26 02:45:18;;;;;;;;;;;;;;;;;;2058307;28;1254;-81
2021/12/26 02:46:20;;;;;;;;;;;;;;;;;;2066664;28;871;-81
2021/12/26 02:47:30;;;;;;;;;;;;;;;;;;2058021;28;1290;-81
2021/12/26 02:48:31;;;;;;;;;;;;;;;;;;2060904;28;1099;-80
2021/12/26 02:49:32;;;;;;;;;;;;;;;;;;2066150;28;1343;-81
2021/12/26 02:50:34;;;;;;;;;;;;;;;;;;2058191;28;1237;-81
2021/12/26 02:51:36;;;;;;;;;;;;;;;;;;2055693;28;2045;-81
2021/12/26 02:52:38;;;;;;;;;;;;;;;;;;2048233;29;1976;-81
2021/12/26 02:53:40;;;;;;;;;;;;;;;;;;2050253;28;1336;-81
2021/12/26 02:54:41;;;;;;;;;;;;;;;;;;2050207;29;1338;-80
2021/12/26 02:55:42;;;;;;;;;;;;;;;;;;2048964;29;1348;-81
2021/12/26 02:56:44;;;;;;;;;;;;;;;;;;2052256;28;1221;-81
2021/12/26 02:57:46;;;;;;;;;;;;;;;;;;2057590;28;991;-82
2021/12/26 02:58:48;;;;;;;;;;;;;;;;;;2058304;28;1280;-80
2021/12/26 02:59:50;;;;;;;;;;;;;;;;;;2057855;28;1408;-81
2021/12/26 03:00:52;;;;;;;;;;;;;;;;;;2050382;29;1147;-81
2021/12/26 03:01:53;;;;;;;;;;;;;;;;;;2050137;28;1550;-81
2021/12/26 03:02:55;;;;;;;;;;;;;;;;;;2050497;29;1308;-82
2021/12/26 03:03:57;;;;;;;;;;;;;;;;;;2050157;28;1687;-81
2021/12/26 03:04:59;;;;;;;;;;;;;;;;;;2049817;29;1369;-83
2021/12/26 03:06:03;;;;;;;;;;;;;;;;;;2049892;29;1445;-81
2021/12/26 03:07:05;;;;;;;;;;;;;;;;;;2050399;28;1382;-81
2021/12/26 03:08:08;;;;;;;;;;;;;;;;;;2050112;29;1420;-81
2021/12/26 03:09:09;;;;;;;;;;;;;;;;;;2050018;28;1281;-81
2021/12/26 03:10:20;;;;;;;;;;;;;;;;;;2050295;29;1349;-81
2021/12/26 03:11:22;;;;;;;;;;;;;;;;;;2043560;29;1359;-81
2021/12/26 03:12:23;;;;;;;;;;;;;;;;;;2049982;29;1910;-82
2021/12/26 03:13:25;;;;;;;;;;;;;;;;;;2042250;29;1792;-81
2021/12/26 03:14:25;;;;;;;;;;;;;;;;;;2050252;28;1707;-81
2021/12/26 03:15:31;;;;;;;;;;;;;;;;;;2049222;28;1226;-81
2021/12/26 03:16:32;;;;;;;;;;;;;;;;;;2050090;28;1540;-81
2021/12/26 03:17:33;;;;;;;;;;;;;;;;;;2058005;28;1244;-81
2021/12/26 03:18:34;;;;;;;;;;;;;;;;;;2050027;29;1626;-81
2021/12/26 03:19:36;;;;;;;;;;;;;;;;;;2050158;29;1515;-81
2021/12/26 03:20:39;;;;;;;;;;;;;;;;;;2058240;28;1277;-79
2021/12/26 03:21:40;;;;;;;;;;;;;;;;;;2063681;28;1243;-82
2021/12/26 03:22:44;;;;;;;;;;;;;;;;;;2057774;28;1273;-79
2021/12/26 03:23:46;;;;;;;;;;;;;;;;;;2058155;28;1352;-79
2021/12/26 03:24:46;;;;;;;;;;;;;;;;;;2058123;28;1529;-80
2021/12/26 03:25:48;;;;;;;;;;;;;;;;;;2050034;29;1727;-80
2021/12/26 03:26:49;;;;;;;;;;;;;;;;;;2051379;28;1170;-79
2021/12/26 03:27:52;;;;;;;;;;;;;;;;;;2058084;28;1099;-81
2021/12/26 03:28:53;;;;;;;;;;;;;;;;;;2050335;29;1268;-81
2021/12/26 03:29:54;;;;;;;;;;;;;;;;;;2042118;29;1356;-81
2021/12/26 03:30:57;;;;;;;;;;;;;;;;;;2050886;28;1221;-81
2021/12/26 03:31:58;;;;;;;;;;;;;;;;;;2051020;28;1215;-81
2021/12/26 03:33:01;;;;;;;;;;;;;;;;;;2050050;29;1976;-79
2021/12/26 03:34:03;;;;;;;;;;;;;;;;;;2050214;29;1337;-80
2021/12/26 03:35:05;;;;;;;;;;;;;;;;;;2050039;28;1578;-79
2021/12/26 03:36:06;;;;;;;;;;;;;;;;;;2050098;29;1292;-80
2021/12/26 03:37:07;;;;;;;;;;;;;;;;;;2049762;29;1257;-79
2021/12/26 03:38:10;;;;;;;;;;;;;;;;;;2049747;28;1305;-80
2021/12/26 03:39:38;;;;;;;;;;;;;;;;;;2057844;28;1556;-79
2021/12/26 03:40:39;;;;;;;;;;;;;;;;;;2058047;28;1441;-80
2021/12/26 03:41:41;;;;;;;;;;;;;;;;;;2061917;28;1431;-80
2021/12/26 03:42:41;;;;;;;;;;;;;;;;;;2066094;28;1180;-79
2021/12/26 03:43:43;;;;;;;;;;;;;;;;;;2065795;28;1210;-80
2021/12/26 03:44:44;;;;;;;;;;;;;;;;;;2066051;28;1853;-79
2021/12/26 03:45:48;;;;;;;;;;;;;;;;;;2057733;28;1397;-80
2021/12/26 03:46:49;;;;;;;;;;;;;;;;;;2058391;28;1300;-80
2021/12/26 03:47:51;;;;;;;;;;;;;;;;;;2066088;28;988;-80
2021/12/26 03:48:53;;;;;;;;;;;;;;;;;;2066065;28;1461;-80
2021/12/26 03:49:54;;;;;;;;;;;;;;;;;;2065937;28;1372;-80
2021/12/26 03:50:57;;;;;;;;;;;;;;;;;;2073963;28;1568;-81
2021/12/26 03:51:58;;;;;;;;;;;;;;;;;;2065580;28;1849;-80
2021/12/26 03:53:02;;;;;;;;;;;;;;;;;;2065815;28;1973;-81
2021/12/26 03:54:05;;;;;;;;;;;;;;;;;;2066247;28;1660;-80
2021/12/26 03:55:07;;;;;;;;;;;;;;;;;;2060232;28;1218;-80
2021/12/26 03:56:08;;;;;;;;;;;;;;;;;;2063869;28;1316;-80
2021/12/26 03:57:12;;;;;;;;;;;;;;;;;;2057943;28;1102;-80
2021/12/26 03:58:13;;;;;;;;;;;;;;;;;;2057889;28;1419;-80
2021/12/26 03:59:14;;;;;;;;;;;;;;;;;;2049797;29;1535;-80
2021/12/26 04:00:15;;;;;;;;;;;;;;;;;;2058058;28;1309;-79
2021/12/26 04:01:17;;;;;;;;;;;;;;;;;;2066058;28;922;-80
2021/12/26 04:02:18;;;;;;;;;;;;;;;;;;2066140;28;1465;-80
2021/12/26 04:03:20;;;;;;;;;;;;;;;;;;2057837;28;1297;-81
2021/12/26 04:04:27;;;;;;;;;;;;;;;;;;2051070;28;1584;-80
2021/12/26 04:05:29;;;;;;;;;;;;;;;;;;2057850;28;1046;-82
2021/12/26 04:06:29;;;;;;;;;;;;;;;;;;2062081;28;1340;-80
2021/12/26 04:07:32;;;;;;;;;;;;;;;;;;2057712;28;1201;-81
2021/12/26 04:08:32;;;;;;;;;;;;;;;;;;2057833;28;1514;-81
2021/12/26 04:09:37;;;;;;;;;;;;;;;;;;2058163;28;1231;-80
2021/12/26 04:10:38;;;;;;;;;;;;;;;;;;2058229;28;1416;-80
2021/12/26 04:11:44;;;;;;;;;;;;;;;;;;2065027;28;1198;-80
2021/12/26 04:12:47;;;;;;;;;;;;;;;;;;2057969;28;1979;-80
2021/12/26 04:13:49;;;;;;;;;;;;;;;;;;2050582;28;1198;-80
2021/12/26 04:14:50;;;;;;;;;;;;;;;;;;2050079;28;1206;-80
2021/12/26 04:15:52;;;;;;;;;;;;;;;;;;2057526;28;1445;-81
2021/12/26 04:16:52;;;;;;;;;;;;;;;;;;2058033;28;2005;-80
2021/12/26 04:17:57;;;;;;;;;;;;;;;;;;2049816;29;1342;-80
2021/12/26 04:18:58;;;;;;;;;;;;;;;;;;2050243;28;1299;-82
2021/12/26 04:20:00;;;;;;;;;;;;;;;;;;2057796;28;1269;-80
2021/12/26 04:21:01;;;;;;;;;;;;;;;;;;2058337;28;1433;-80
2021/12/26 04:22:08;;;;;;;;;;;;;;;;;;2066093;28;1214;-80
2021/12/26 04:23:09;;;;;;;;;;;;;;;;;;2065752;28;1334;-81
2021/12/26 04:24:10;;;;;;;;;;;;;;;;;;2066020;28;1588;-80
2021/12/26 04:25:12;;;;;;;;;;;;;;;;;;2065684;28;1355;-80
2021/12/26 04:26:15;;;;;;;;;;;;;;;;;;2065841;28;1194;-81
2021/12/26 04:27:15;;;;;;;;;;;;;;;;;;2058455;28;1250;-80
2021/12/26 04:28:19;;;;;;;;;;;;;;;;;;2059410;28;1614;-80
2021/12/26 04:29:20;;;;;;;;;;;;;;;;;;2059435;28;1518;-80
2021/12/26 04:30:23;;;;;;;;;;;;;;;;;;2059680;28;1292;-81
2021/12/26 04:31:23;;;;;;;;;;;;;;;;;;2055569;28;1243;-80
2021/12/26 04:32:25;;;;;;;;;;;;;;;;;;2059450;28;1981;-81
2021/12/26 04:33:26;;;;;;;;;;;;;;;;;;2051296;29;1687;-80
2021/12/26 04:34:30;;;;;;;;;;;;;;;;;;2043871;29;1205;-81
2021/12/26 04:35:31;;;;;;;;;;;;;;;;;;2043338;29;1391;-80
2021/12/26 04:36:33;;;;;;;;;;;;;;;;;;2051210;28;2099;-81
2021/12/26 04:37:34;;;;;;;;;;;;;;;;;;2051210;29;985;-81
2021/12/26 04:38:36;;;;;;;;;;;;;;;;;;2043640;29;1199;-80
2021/12/26 04:39:38;;;;;;;;;;;;;;;;;;2043233;29;1546;-80
2021/12/26 04:40:40;;;;;;;;;;;;;;;;;;2043482;29;1185;-80
2021/12/26 04:41:55;;;;;;;;;;;;;;;;;;2053282;28;1440;-80
2021/12/26 04:43:12;;;;;;;;;;;;;;;;;;2059450;28;816;-81
2021/12/26 04:44:38;;;;;;;;;;;;;;;;;;2054269;28;1134;-80
2021/12/26 04:46:09;;;;;;;;;;;;;;;;;;2036314;29;2042;-81
2021/12/26 04:47:28;;;;;;;;;;;;;;;;;;2058033;28;1540;-80
2021/12/26 04:48:30;;;;;;;;;;;;;;;;;;2050943;29;1285;-81
2021/12/26 04:49:30;;;;;;;;;;;;;;;;;;2051067;29;1194;-80
2021/12/26 04:50:32;;;;;;;;;;;;;;;;;;2051405;29;1326;-80
2021/12/26 04:51:37;;;;;;;;;;;;;;;;;;2055321;28;1521;-80
2021/12/26 04:52:43;;;;;;;;;;;;;;;;;;2067314;28;1906;-80
2021/12/26 04:53:46;;;;;;;;;;;;;;;;;;2067158;28;1303;-80
2021/12/26 04:54:47;;;;;;;;;;;;;;;;;;2059342;28;1466;-80
2021/12/26 04:55:49;;;;;;;;;;;;;;;;;;2059111;28;1364;-79
2021/12/26 04:56:51;;;;;;;;;;;;;;;;;;2067484;28;832;-82
2021/12/26 04:57:52;;;;;;;;;;;;;;;;;;2067066;28;2022;-80
2021/12/26 04:58:54;;;;;;;;;;;;;;;;;;2059357;28;1269;-80
2021/12/26 04:59:55;;;;;;;;;;;;;;;;;;2067213;28;1090;-80
2021/12/26 05:00:57;;;;;;;;;;;;;;;;;;2067062;28;1241;-81
2021/12/26 05:01:59;;;;;;;;;;;;;;;;;;2059226;28;1866;-81
2021/12/26 05:03:02;;;;;;;;;;;;;;;;;;2067170;28;824;-81
2021/12/26 05:04:03;;;;;;;;;;;;;;;;;;2067942;28;875;-80
2021/12/26 05:05:06;;;;;;;;;;;;;;;;;;2067176;28;1275;-80
2021/12/26 05:06:07;;;;;;;;;;;;;;;;;;2059116;28;1260;-80
2021/12/26 05:07:09;;;;;;;;;;;;;;;;;;2058870;28;1263;-80
2021/12/26 05:08:10;;;;;;;;;;;;;;;;;;2067260;28;1433;-81
2021/12/26 05:09:13;;;;;;;;;;;;;;;;;;2067149;28;1258;-81
2021/12/26 05:10:17;;;;;;;;;;;;;;;;;;2059221;28;1370;-80
2021/12/26 05:11:20;;;;;;;;;;;;;;;;;;2051517;28;1308;-81
2021/12/26 05:12:24;;;;;;;;;;;;;;;;;;2051614;28;1331;-81
2021/12/26 05:13:27;;;;;;;;;;;;;;;;;;2059211;28;1906;-81
2021/12/26 05:14:27;;;;;;;;;;;;;;;;;;2067050;28;1599;-81
2021/12/26 05:15:29;;;;;;;;;;;;;;;;;;2067104;28;1410;-81
2021/12/26 05:16:30;;;;;;;;;;;;;;;;;;2058993;28;1253;-82
2021/12/26 05:17:32;;;;;;;;;;;;;;;;;;2058819;28;1197;-82
2021/12/26 05:18:32;;;;;;;;;;;;;;;;;;2059252;28;1548;-81
2021/12/26 05:19:37;;;;;;;;;;;;;;;;;;2059333;28;1345;-81
2021/12/26 05:20:39;;;;;;;;;;;;;;;;;;2059029;28;1530;-81
2021/12/26 05:21:41;;;;;;;;;;;;;;;;;;2052812;28;1349;-81
2021/12/26 05:22:43;;;;;;;;;;;;;;;;;;2058933;28;1229;-81
2021/12/26 05:23:44;;;;;;;;;;;;;;;;;;2059271;28;1015;-81
2021/12/26 05:24:45;;;;;;;;;;;;;;;;;;2050945;29;1401;-81
2021/12/26 05:25:47;;;;;;;;;;;;;;;;;;2050808;29;876;-82
2021/12/26 05:26:49;;;;;;;;;;;;;;;;;;2051127;29;1227;-81
2021/12/26 05:27:51;;;;;;;;;;;;;;;;;;2043208;29;1234;-82
2021/12/26 05:28:53;;;;;;;;;;;;;;;;;;2051529;28;853;-81
2021/12/26 05:29:55;;;;;;;;;;;;;;;;;;2058881;28;1322;-81
2021/12/26 05:30:57;;;;;;;;;;;;;;;;;;2058887;28;1549;-84
2021/12/26 05:32:01;;;;;;;;;;;;;;;;;;2051136;29;1408;-82
2021/12/26 05:33:02;;;;;;;;;;;;;;;;;;2042875;29;1971;-82
2021/12/26 05:34:04;;;;;;;;;;;;;;;;;;2051175;29;1219;-81
2021/12/26 05:35:05;;;;;;;;;;;;;;;;;;2050776;29;1345;-81
2021/12/26 05:36:08;;;;;;;;;;;;;;;;;;2052424;28;2044;-80
2021/12/26 05:37:11;;;;;;;;;;;;;;;;;;2051019;29;1286;-80
2021/12/26 05:38:13;;;;;;;;;;;;;;;;;;2050635;28;1440;-80
2021/12/26 05:39:18;;;;;;;;;;;;;;;;;;2050803;29;1245;-80
2021/12/26 05:40:20;;;;;;;;;;;;;;;;;;2050800;29;1253;-81
2021/12/26 05:41:20;;;;;;;;;;;;;;;;;;2058664;28;1408;-81
2021/12/26 05:42:38;;;;;;;;;;;;;;;;;;2051004;29;1009;-81
2021/12/26 05:43:40;;;;;;;;;;;;;;;;;;2042980;29;1214;-80
2021/12/26 05:44:42;;;;;;;;;;;;;;;;;;2051108;28;1254;-80
2021/12/26 05:45:43;;;;;;;;;;;;;;;;;;2050544;29;1286;-80
2021/12/26 05:46:50;;;;;;;;;;;;;;;;;;2065900;28;1957;-80
2021/12/26 05:47:51;;;;;;;;;;;;;;;;;;2066917;28;1224;-81
2021/12/26 05:48:53;;;;;;;;;;;;;;;;;;2058691;28;1301;-80
2021/12/26 05:50:03;;;;;;;;;;;;;;;;;;2060009;28;1513;-81
2021/12/26 05:51:05;;;;;;;;;;;;;;;;;;2057028;28;1180;-81
2021/12/26 05:52:24;;;;;;;;;;;;;;;;;;2053665;28;658;-81
2021/12/26 05:53:30;;;;;;;;;;;;;;;;;;2050410;29;1906;-81
2021/12/26 05:54:31;;;;;;;;;;;;;;;;;;2042893;29;1366;-80
2021/12/26 05:55:33;;;;;;;;;;;;;;;;;;2050832;28;1241;-80
2021/12/26 05:56:34;;;;;;;;;;;;;;;;;;2058810;28;1299;-80
2021/12/26 05:57:39;;;;;;;;;;;;;;;;;;2058497;28;879;-80
2021/12/26 05:58:40;;;;;;;;;;;;;;;;;;2050612;29;982;-80
2021/12/26 05:59:42;;;;;;;;;;;;;;;;;;2050634;28;1394;-80
2021/12/26 06:00:43;;;;;;;;;;;;;;;;;;2058936;28;1209;-80
2021/12/26 06:01:44;;;;;;;;;;;;;;;;;;2059145;28;2039;-81
2021/12/26 06:02:50;;;;;;;;;;;;;;;;;;2058819;28;975;-82
2021/12/26 06:03:53;;;;;;;;;;;;;;;;;;2050848;28;1264;-81
2021/12/26 06:04:53;;;;;;;;;;;;;;;;;;2050765;29;1310;-81
2021/12/26 06:05:55;;;;;;;;;;;;;;;;;;2050353;28;1429;-81
2021/12/26 06:07:05;;;;;;;;;;;;;;;;;;2058641;28;1210;-81
2021/12/26 06:08:07;;;;;;;;;;;;;;;;;;2058746;28;1254;-81
2021/12/26 06:09:10;;;;;;;;;;;;;;;;;;2066290;28;1402;-81
2021/12/26 06:10:14;;;;;;;;;;;;;;;;;;2058769;28;1678;-81
2021/12/26 06:11:15;;;;;;;;;;;;;;;;;;2050550;28;1389;-81
2021/12/26 06:12:19;;;;;;;;;;;;;;;;;;2050903;28;1379;-81
2021/12/26 06:13:22;;;;;;;;;;;;;;;;;;2050446;28;1910;-81
2021/12/26 06:14:24;;;;;;;;;;;;;;;;;;2058524;28;1461;-80
2021/12/26 06:15:24;;;;;;;;;;;;;;;;;;2066693;28;1335;-81
2021/12/26 06:16:26;;;;;;;;;;;;;;;;;;2061902;28;2028;-81
2021/12/26 06:17:27;;;;;;;;;;;;;;;;;;2058426;28;1319;-81
2021/12/26 06:18:38;;;;;;;;;;;;;;;;;;2067878;28;915;-80
2021/12/26 06:19:57;;;;;;;;;;;;;;;;;;2075380;28;615;-81
2021/12/26 06:21:05;;;;;;;;;;;;;;;;;;2066638;28;1340;-80
2021/12/26 06:22:32;;;;;;;;;;;;;;;;;;2070225;28;1254;-81
2021/12/26 06:23:38;;;;;;;;;;;;;;;;;;2075265;28;724;-80
2021/12/26 06:25:07;;;;;;;;;;;;;;;;;;2047323;28;1210;-81
2021/12/26 06:26:37;;;;;;;;;;;;;;;;;;2066007;28;1385;-80
2021/12/26 06:27:46;;;;;;;;;;;;;;;;;;2059597;28;1290;-80
2021/12/26 06:28:58;;;;;;;;;;;;;;;;;;2067627;28;638;-80
2021/12/26 06:30:09;;;;;;;;;;;;;;;;;;2075655;28;832;-80
2021/12/26 06:31:43;;;;;;;;;;;;;;;;;;2074379;28;1235;-80
2021/12/26 06:33:17;;;;;;;;;;;;;;;;;;2045507;29;1972;-80
2021/12/26 06:34:50;;;;;;;;;;;;;;;;;;2074090;28;1184;-80
2021/12/26 06:36:11;;;;;;;;;;;;;;;;;;2067657;28;626;-79
2021/12/26 06:37:31;;;;;;;;;;;;;;;;;;2067006;28;712;-80
2021/12/26 06:38:52;;;;;;;;;;;;;;;;;;2067011;28;750;-81
2021/12/26 06:40:32;;;;;;;;;;;;;;;;;;2026576;29;1160;-80
2021/12/26 06:41:52;;;;;;;;;;;;;;;;;;2026526;29;624;-80
2021/12/26 06:43:12;;;;;;;;;;;;;;;;;;2026433;29;860;-80
2021/12/26 06:44:53;;;;;;;;;;;;;;;;;;2003449;29;1337;-79
2021/12/26 06:46:06;;;;;;;;;;;;;;;;;;2011001;29;1449;-80
2021/12/26 06:47:37;;;;;;;;;;;;;;;;;;2030021;29;1130;-80
2021/12/26 06:48:38;;;;;;;;;;;;;;;;;;2034458;29;856;-80
2021/12/26 06:49:43;;;;;;;;;;;;;;;;;;2033807;29;1414;-80
2021/12/26 06:50:44;;;;;;;;;;;;;;;;;;2047977;28;1530;-80
2021/12/26 06:51:51;;;;;;;;;;;;;;;;;;2058858;28;835;-80
2021/12/26 06:52:52;;;;;;;;;;;;;;;;;;2058143;28;1274;-80
2021/12/26 06:53:54;;;;;;;;;;;;;;;;;;2050109;29;1358;-80
2021/12/26 06:54:54;;;;;;;;;;;;;;;;;;2050402;28;1265;-80
2021/12/26 06:55:56;;;;;;;;;;;;;;;;;;2050271;29;1821;-80
2021/12/26 06:56:57;;;;;;;;;;;;;;;;;;2043348;29;1184;-80
2021/12/26 06:57:58;;;;;;;;;;;;;;;;;;2051238;28;1321;-81
2021/12/26 06:58:59;;;;;;;;;;;;;;;;;;2050019;29;1591;-80
2021/12/26 07:00:04;;;;;;;;;;;;;;;;;;2050287;28;1687;-79
2021/12/26 07:01:07;;;;;;;;;;;;;;;;;;2052471;28;1296;-80
2021/12/26 07:02:08;;;;;;;;;;;;;;;;;;2050277;29;1227;-79
2021/12/26 07:03:30;;;;;;;;;;;;;;;;;;2049846;29;1973;-79
2021/12/26 07:04:32;;;;;;;;;;;;;;;;;;2047800;29;1384;-79
2021/12/26 07:05:33;;;;;;;;;;;;;;;;;;2049821;28;1969;-78
2021/12/26 07:06:40;;;;;;;;;;;;;;;;;;2064307;28;2129;-79
2021/12/26 07:07:48;;;;;;;;;;;;;;;;;;2066016;28;1302;-79
2021/12/26 07:08:50;;;;;;;;;;;;;;;;;;2065686;28;1720;-79
2021/12/26 07:09:50;;;;;;;;;;;;;;;;;;2066138;28;2117;-79
2021/12/26 07:10:54;;;;;;;;;;;;;;;;;;2058417;28;1240;-79
2021/12/26 07:11:55;;;;;;;;;;;;;;;;;;2049914;29;1432;-79
2021/12/26 07:13:12;;;;;;;;;;;;;;;;;;2052067;28;1392;-79
2021/12/26 07:14:17;;;;;;;;;;;;;;;;;;2058123;28;1328;-79
2021/12/26 07:15:20;;;;;;;;;;;;;;;;;;2057910;28;1237;-80
2021/12/26 07:16:27;;;;;;;;;;;;;;;;;;2054614;28;1650;-80
2021/12/26 07:17:29;;;;;;;;;;;;;;;;;;2049829;29;1346;-80
2021/12/26 07:18:31;;;;;;;;;;;;;;;;;;2050412;28;1471;-80
2021/12/26 07:19:32;;;;;;;;;;;;;;;;;;2057945;28;1220;-80
2021/12/26 07:20:42;;;;;;;;;;;;;;;;;;2050201;29;1560;-80
2021/12/26 07:22:03;;;;;;;;;;;;;;;;;;2053039;28;1369;-80
2021/12/26 07:23:05;;;;;;;;;;;;;;;;;;2057159;28;1627;-79
2021/12/26 07:24:06;;;;;;;;;;;;;;;;;;2049402;29;1899;-80
2021/12/26 07:25:09;;;;;;;;;;;;;;;;;;2049794;28;1312;-80
2021/12/26 07:26:11;;;;;;;;;;;;;;;;;;2059497;28;1332;-79
2021/12/26 07:27:12;;;;;;;;;;;;;;;;;;2065050;28;1486;-79
2021/12/26 07:28:32;;;;;;;;;;;;;;;;;;2066213;28;820;-79
2021/12/26 07:29:48;;;;;;;;;;;;;;;;;;2065688;28;1442;-80
2021/12/26 07:30:51;;;;;;;;;;;;;;;;;;2057756;28;1182;-80
2021/12/26 07:31:52;;;;;;;;;;;;;;;;;;2057528;28;1929;-80